createdAt,value
2023-03-02T00:07:46.244Z,99460.43
2023-03-02T00:17:53.515Z,99463.77
2023-03-02T00:28:00.770Z,99458.64
2023-03-02T00:38:07.514Z,99450.58
2023-03-02T00:48:14.577Z,99444.11
2023-03-02T00:58:21.630Z,99444.10
2023-03-02T01:08:28.783Z,99439.05
2023-03-02T01:18:38.900Z,99431.90
2023-03-02T01:28:46.294Z,99423.68
2023-03-02T01:38:54.475Z,99420.62
2023-03-02T01:49:05.410Z,99410.70
2023-03-02T01:59:10.045Z,99399.48
2023-03-02T02:09:19.542Z,99381.16
2023-03-02T02:19:28.250Z,99380.23
2023-03-02T02:29:40.165Z,99380.77
2023-03-02T02:39:48.556Z,99376.16
2023-03-02T02:49:55.845Z,99363.40
2023-03-02T03:00:06.724Z,99355.74
2023-03-02T03:10:12.035Z,99357.19
2023-03-02T03:20:20.642Z,99352.46
2023-03-02T03:30:27.887Z,99341.89
2023-03-02T03:40:36.028Z,99332.55
2023-03-02T03:50:43.556Z,99320.93
2023-03-02T04:00:49.688Z,99312.39
2023-03-02T04:10:57.087Z,99312.71
2023-03-02T04:21:04.231Z,99307.50
2023-03-02T04:31:11.958Z,99312.57
2023-03-02T04:41:19.663Z,99314.96
2023-03-02T04:51:30.145Z,99316.19
2023-03-02T05:01:37.612Z,99311.45
2023-03-02T05:11:45.028Z,99318.11
2023-03-02T05:21:51.976Z,99326.45
2023-03-02T05:31:59.222Z,99330.54
2023-03-02T05:42:06.136Z,99326.90
2023-03-02T05:52:13.283Z,99327.54
2023-03-02T06:02:20.639Z,99330.23
2023-03-02T06:12:28.531Z,99332.65
2023-03-02T06:22:35.645Z,99336.39
2023-03-02T06:32:43.473Z,99334.48
2023-03-02T06:42:50.710Z,99345.39
2023-03-02T07:03:04.919Z,99346.01
2023-03-02T07:13:12.718Z,99340.15
2023-03-02T07:23:24.800Z,99328.42
2023-03-02T07:33:32.280Z,99324.90
2023-03-02T07:43:40.197Z,99327.14
2023-03-02T07:53:46.693Z,99327.81
2023-03-02T08:03:54.013Z,99320.57
2023-03-02T08:14:02.655Z,99325.19
2023-03-02T08:24:07.596Z,99322.30
2023-03-02T08:34:14.753Z,99320.78
2023-03-02T08:44:22.394Z,99320.48
2023-03-02T08:54:29.599Z,99307.05
2023-03-02T09:04:36.407Z,99302.34
2023-03-02T09:14:43.584Z,99295.90
2023-03-02T09:24:50.983Z,99287.02
2023-03-02T09:34:58.141Z,99283.34
2023-03-02T09:45:13.916Z,99279.11
2023-03-02T09:55:20.980Z,99277.29
2023-03-02T10:05:26.117Z,99263.79
2023-03-02T10:15:32.415Z,99260.60
2023-03-02T10:25:41.443Z,99254.66
2023-03-02T10:35:48.766Z,99249.33
2023-03-02T10:46:01.978Z,99236.78
2023-03-02T10:56:06.901Z,99230.23
2023-03-02T11:06:12.529Z,99229.09
2023-03-02T11:16:25.249Z,99218.01
2023-03-02T11:26:35.577Z,99209.48
2023-03-02T11:36:45.647Z,99202.16
2023-03-02T11:46:53.756Z,99189.77
2023-03-02T11:57:01.162Z,99182.86
2023-03-02T12:07:18.935Z,99168.59
2023-03-02T12:17:24.356Z,99155.95
2023-03-02T12:27:36.109Z,99143.52
2023-03-02T12:37:42.857Z,99134.73
2023-03-02T12:47:58.316Z,99126.77
2023-03-02T12:58:07.418Z,99115.28
2023-03-02T13:08:17.671Z,99103.81
2023-03-02T13:18:24.686Z,99092.33
2023-03-02T13:28:34.909Z,99085.02
2023-03-02T13:38:50.108Z,99072.02
2023-03-02T13:49:09.245Z,99069.38
2023-03-02T13:59:20.117Z,99055.04
2023-03-02T14:09:27.386Z,99044.66
2023-03-02T14:19:34.713Z,99027.98
2023-03-02T14:29:41.834Z,99015.40
2023-03-02T14:39:52.366Z,99007.28
2023-03-02T14:50:01.267Z,99000.98
2023-03-02T15:00:15.503Z,98999.23
2023-03-02T15:10:25.302Z,98999.96
2023-03-02T15:20:32.205Z,98995.05
2023-03-02T15:30:38.617Z,98995.65
2023-03-02T15:40:46.376Z,98999.07
2023-03-02T15:50:57.698Z,98994.08
2023-03-02T16:01:08.084Z,98995.58
2023-03-02T16:11:18.721Z,98998.86
2023-03-02T16:21:26.102Z,99000.29
2023-03-02T16:31:37.817Z,99003.83
2023-03-02T16:41:46.411Z,99006.06
2023-03-02T16:51:58.400Z,99006.36
2023-03-02T17:02:05.750Z,99011.95
2023-03-02T17:12:12.993Z,99017.08
2023-03-02T17:22:19.101Z,99027.59
2023-03-02T17:32:26.576Z,99033.56
2023-03-02T17:42:33.109Z,99037.98
2023-03-02T17:52:40.698Z,99041.63
2023-03-02T18:02:48.061Z,99035.21
2023-03-02T18:12:54.833Z,99035.65
2023-03-02T18:23:01.030Z,99033.70
2023-03-02T18:33:08.500Z,99031.98
2023-03-02T18:43:16.567Z,99030.98
2023-03-02T18:53:22.783Z,99032.67
2023-03-02T19:03:31.298Z,99032.27
2023-03-02T19:13:38.860Z,99040.98
2023-03-02T19:23:46.629Z,99041.67
2023-03-02T19:34:18.889Z,99041.63
2023-03-02T19:44:25.625Z,99050.02
2023-03-02T19:54:33.014Z,99045.32
2023-03-02T20:04:40.334Z,99043.28
2023-03-02T20:14:47.279Z,99040.33
2023-03-02T20:24:54.667Z,99032.27
2023-03-02T20:35:03.490Z,99030.11
2023-03-02T20:45:13.241Z,99027.52
2023-03-02T20:55:21.067Z,99019.91
2023-03-02T21:05:29.799Z,99018.00
2023-03-02T21:15:38.196Z,99014.33
2023-03-02T21:25:45.145Z,99009.25
2023-03-02T21:35:52.182Z,99003.10
2023-03-02T21:45:58.702Z,98989.36
2023-03-02T21:56:05.326Z,98974.98
2023-03-02T22:06:13.326Z,98963.37
2023-03-02T22:16:22.206Z,98957.41
2023-03-02T22:26:29.525Z,98951.99
2023-03-02T22:36:37.865Z,98954.40
2023-03-02T22:46:45.336Z,98956.06
2023-03-02T22:56:52.043Z,98957.98
2023-03-02T23:07:01.213Z,98956.63
2023-03-02T23:17:09.102Z,98946.70
2023-03-02T23:27:16.208Z,98938.56
2023-03-02T23:37:23.525Z,98928.55
2023-03-02T23:47:30.888Z,98925.95
2023-03-02T23:57:38.118Z,98932.52
